sensor_id;sensor_type;location;lat;lon;timestamp;pressure;altitude;pressure_sealevel;temperature;humidity
29907;BME280;16776;50.958;10.994;2023-04-25T00:01:44;97681.47;;;6.02;90.89
29907;BME280;16776;50.958;10.994;2023-04-25T00:04:12;97678.84;;;6.07;90.46
29907;BME280;16776;50.958;10.994;2023-04-25T00:06:39;97678.91;;;6.04;90.08
29907;BME280;16776;50.958;10.994;2023-04-25T00:09:06;97681.44;;;6.04;90.30
29907;BME280;16776;50.958;10.994;2023-04-25T00:11:35;97675.53;;;6.02;90.08
29907;BME280;16776;50.958;10.994;2023-04-25T00:14:04;97679.84;;;6.00;90.55
29907;BME280;16776;50.958;10.994;2023-04-25T00:16:32;97678.19;;;5.97;90.63
29907;BME280;16776;50.958;10.994;2023-04-25T00:19:06;97678.09;;;6.02;90.29
29907;BME280;16776;50.958;10.994;2023-04-25T00:21:34;97674.84;;;5.95;91.11
29907;BME280;16776;50.958;10.994;2023-04-25T00:24:01;97672.41;;;5.91;89.53
29907;BME280;16776;50.958;10.994;2023-04-25T00:26:27;97675.75;;;5.93;90.31
29907;BME280;16776;50.958;10.994;2023-04-25T00:28:54;97675.75;;;5.93;90.32
29907;BME280;16776;50.958;10.994;2023-04-25T00:31:20;97674.91;;;5.92;91.15
29907;BME280;16776;50.958;10.994;2023-04-25T00:33:47;97672.41;;;5.91;90.41
29907;BME280;16776;50.958;10.994;2023-04-25T00:36:14;97674.91;;;5.92;90.92
29907;BME280;16776;50.958;10.994;2023-04-25T00:38:42;97673.22;;;5.93;90.52
29907;BME280;16776;50.958;10.994;2023-04-25T00:41:09;97672.41;;;5.91;90.33
29907;BME280;16776;50.958;10.994;2023-04-25T00:43:36;97663.13;;;5.87;90.96
29907;BME280;16776;50.958;10.994;2023-04-25T00:46:03;97666.56;;;5.85;90.65
29907;BME280;16776;50.958;10.994;2023-04-25T00:48:30;97670.72;;;5.90;90.75
29907;BME280;16776;50.958;10.994;2023-04-25T00:50:57;97664.72;;;5.91;91.02
29907;BME280;16776;50.958;10.994;2023-04-25T00:53:26;97676.63;;;5.92;90.52
29907;BME280;16776;50.958;10.994;2023-04-25T00:55:55;97670.66;;;5.93;90.93
29907;BME280;16776;50.958;10.994;2023-04-25T00:58:22;97660.44;;;5.93;90.74
29907;BME280;16776;50.958;10.994;2023-04-25T01:00:50;97661.34;;;5.89;90.67
29907;BME280;16776;50.958;10.994;2023-04-25T01:03:18;97660.44;;;5.93;90.26
29907;BME280;16776;50.958;10.994;2023-04-25T01:05:46;97668.97;;;5.92;90.23
29907;BME280;16776;50.958;10.994;2023-04-25T01:08:13;97671.53;;;5.92;90.08
29907;BME280;16776;50.958;10.994;2023-04-25T01:10:40;97666.47;;;5.89;90.42
29907;BME280;16776;50.958;10.994;2023-04-25T01:13:08;97669.03;;;5.89;90.81
29907;BME280;16776;50.958;10.994;2023-04-25T01:15:34;97671.69;;;5.84;90.74
29907;BME280;16776;50.958;10.994;2023-04-25T01:18:02;97674.28;;;5.82;91.01
29907;BME280;16776;50.958;10.994;2023-04-25T01:20:29;97672.63;;;5.81;91.20
29907;BME280;16776;50.958;10.994;2023-04-25T01:22:59;97674.28;;;5.82;90.71
29907;BME280;16776;50.958;10.994;2023-04-25T01:25:27;97674.38;;;5.79;90.81
29907;BME280;16776;50.958;10.994;2023-04-25T01:27:54;97671.84;;;5.78;90.15
29907;BME280;16776;50.958;10.994;2023-04-25T01:30:20;97677.84;;;5.75;90.49
29907;BME280;16776;50.958;10.994;2023-04-25T01:32:47;97669.41;;;5.73;90.29
29907;BME280;16776;50.958;10.994;2023-04-25T01:35:14;97674.56;;;5.70;90.71
29907;BME280;16776;50.958;10.994;2023-04-25T01:37:41;97661.78;;;5.70;90.73
29907;BME280;16776;50.958;10.994;2023-04-25T01:40:11;97683.03;;;5.72;91.16
29907;BME280;16776;50.958;10.994;2023-04-25T01:42:41;97669.44;;;5.70;91.25
29907;BME280;16776;50.958;10.994;2023-04-25T01:45:09;97672.09;;;5.67;91.17
29907;BME280;16776;50.958;10.994;2023-04-25T01:47:36;97677.25;;;5.64;90.69
29907;BME280;16776;50.958;10.994;2023-04-25T01:50:03;97680.66;;;5.65;91.39
29907;BME280;16776;50.958;10.994;2023-04-25T01:52:29;97671.28;;;5.65;90.92
29907;BME280;16776;50.958;10.994;2023-04-25T01:54:57;97672.97;;;5.66;91.29
29907;BME280;16776;50.958;10.994;2023-04-25T01:57:25;97672.88;;;5.69;91.48
29907;BME280;16776;50.958;10.994;2023-04-25T01:59:58;97672.78;;;5.74;91.45
29907;BME280;16776;50.958;10.994;2023-04-25T02:02:25;97682.19;;;5.72;91.03
29907;BME280;16776;50.958;10.994;2023-04-25T02:04:51;97682.94;;;5.75;91.44
29907;BME280;16776;50.958;10.994;2023-04-25T02:07:19;97676.94;;;5.78;91.50
29907;BME280;16776;50.958;10.994;2023-04-25T02:09:46;97675.22;;;5.80;90.98
29907;BME280;16776;50.958;10.994;2023-04-25T02:12:12;97672.63;;;5.81;91.31
29907;BME280;16776;50.958;10.994;2023-04-25T02:14:43;97676.78;;;5.85;91.63
29907;BME280;16776;50.958;10.994;2023-04-25T02:17:10;97677.66;;;5.84;91.19
29907;BME280;16776;50.958;10.994;2023-04-25T02:19:37;97678.47;;;5.87;90.88
29907;BME280;16776;50.958;10.994;2023-04-25T02:22:04;97678.47;;;5.87;91.08
29907;BME280;16776;50.958;10.994;2023-04-25T02:24:30;97679.25;;;5.89;90.86
29907;BME280;16776;50.958;10.994;2023-04-25T02:26:58;97674.97;;;5.89;91.18
29907;BME280;16776;50.958;10.994;2023-04-25T02:29:25;97682.63;;;5.89;90.59
29907;BME280;16776;50.958;10.994;2023-04-25T02:31:53;97678.34;;;5.91;91.29
29907;BME280;16776;50.958;10.994;2023-04-25T02:34:19;97672.41;;;5.91;91.39
29907;BME280;16776;50.958;10.994;2023-04-25T02:36:48;97674.00;;;5.95;90.98
29907;BME280;16776;50.958;10.994;2023-04-25T02:39:16;97676.59;;;5.93;91.22
29907;BME280;16776;50.958;10.994;2023-04-25T02:41:42;97679.16;;;5.93;91.03
29907;BME280;16776;50.958;10.994;2023-04-25T02:44:09;97674.84;;;5.95;90.63
29907;BME280;16776;50.958;10.994;2023-04-25T02:46:38;97672.25;;;5.97;90.70
29907;BME280;16776;50.958;10.994;2023-04-25T02:49:07;97674.75;;;6.00;90.84
29907;BME280;16776;50.958;10.994;2023-04-25T02:51:33;97665.41;;;5.97;91.20
29907;BME280;16776;50.958;10.994;2023-04-25T02:54:00;97669.69;;;5.97;90.85
29907;BME280;16776;50.958;10.994;2023-04-25T02:56:26;97669.69;;;5.97;90.64
29907;BME280;16776;50.958;10.994;2023-04-25T02:58:53;97673.13;;;5.96;91.13
29907;BME280;16776;50.958;10.994;2023-04-25T03:01:20;97672.34;;;5.94;90.80
29907;BME280;16776;50.958;10.994;2023-04-25T03:03:46;97675.75;;;5.93;90.93
29907;BME280;16776;50.958;10.994;2023-04-25T03:06:14;97681.72;;;5.93;91.46
29907;BME280;16776;50.958;10.994;2023-04-25T03:08:41;97674.97;;;5.89;91.39
29907;BME280;16776;50.958;10.994;2023-04-25T03:11:08;97678.44;;;5.88;90.42
29907;BME280;16776;50.958;10.994;2023-04-25T03:13:35;97674.22;;;5.85;90.89
29907;BME280;16776;50.958;10.994;2023-04-25T03:16:02;97674.25;;;5.84;90.42
29907;BME280;16776;50.958;10.994;2023-04-25T03:18:28;97675.97;;;5.83;91.14
29907;BME280;16776;50.958;10.994;2023-04-25T03:20:55;97679.38;;;5.82;91.10
29907;BME280;16776;50.958;10.994;2023-04-25T03:23:23;97675.97;;;5.83;90.98
29907;BME280;16776;50.958;10.994;2023-04-25T03:25:49;97673.50;;;5.80;90.67
29907;BME280;16776;50.958;10.994;2023-04-25T03:28:16;97667.56;;;5.78;90.72
29907;BME280;16776;50.958;10.994;2023-04-25T03:30:43;97674.38;;;5.78;90.70
29907;BME280;16776;50.958;10.994;2023-04-25T03:33:09;97676.09;;;5.77;90.81
29907;BME280;16776;50.958;10.994;2023-04-25T03:35:36;97677.84;;;5.75;91.18
29907;BME280;16776;50.958;10.994;2023-04-25T03:38:03;97677.03;;;5.75;90.58
29907;BME280;16776;50.958;10.994;2023-04-25T03:40:31;97677.81;;;5.77;91.26
29907;BME280;16776;50.958;10.994;2023-04-25T03:42:57;97683.88;;;5.73;91.19
29907;BME280;16776;50.958;10.994;2023-04-25T03:45:27;97678.69;;;5.76;91.28
29907;BME280;16776;50.958;10.994;2023-04-25T03:47:53;97686.47;;;5.71;90.85
29907;BME280;16776;50.958;10.994;2023-04-25T03:50:20;97689.88;;;5.70;90.60
29907;BME280;16776;50.958;10.994;2023-04-25T03:52:47;97689.09;;;5.68;90.93
29907;BME280;16776;50.958;10.994;2023-04-25T03:55:13;97682.34;;;5.66;91.24
29907;BME280;16776;50.958;10.994;2023-04-25T03:57:41;97684.84;;;5.67;90.46
29907;BME280;16776;50.958;10.994;2023-04-25T04:00:09;97684.91;;;5.64;90.66
29907;BME280;16776;50.958;10.994;2023-04-25T04:02:35;97688.34;;;5.63;90.77
29907;BME280;16776;50.958;10.994;2023-04-25T04:05:03;97689.25;;;5.62;91.32
29907;BME280;16776;50.958;10.994;2023-04-25T04:07:31;97690.09;;;5.61;91.25
29907;BME280;16776;50.958;10.994;2023-04-25T04:09:58;97695.22;;;5.61;90.54
29907;BME280;16776;50.958;10.994;2023-04-25T04:12:26;97692.69;;;5.60;90.97
29907;BME280;16776;50.958;10.994;2023-04-25T04:14:54;97695.22;;;5.61;90.46
29907;BME280;16776;50.958;10.994;2023-04-25T04:17:21;97690.16;;;5.58;91.02
29907;BME280;16776;50.958;10.994;2023-04-25T04:19:47;97689.31;;;5.58;90.49
29907;BME280;16776;50.958;10.994;2023-04-25T04:22:16;97695.28;;;5.57;90.61
29907;BME280;16776;50.958;10.994;2023-04-25T04:24:44;97694.44;;;5.56;91.11
29907;BME280;16776;50.958;10.994;2023-04-25T04:27:11;97695.34;;;5.55;90.65
29907;BME280;16776;50.958;10.994;2023-04-25T04:29:38;97696.19;;;5.56;90.80
29907;BME280;16776;50.958;10.994;2023-04-25T04:32:09;97692.75;;;5.57;91.39
29907;BME280;16776;50.958;10.994;2023-04-25T04:34:36;97683.38;;;5.57;91.20
29907;BME280;16776;50.958;10.994;2023-04-25T04:37:02;97685.88;;;5.59;91.17
29907;BME280;16776;50.958;10.994;2023-04-25T04:39:29;97695.22;;;5.61;93.35
29907;BME280;16776;50.958;10.994;2023-04-25T04:41:55;97693.25;;;5.72;95.98
29907;BME280;16776;50.958;10.994;2023-04-25T04:44:22;97692.78;;;5.94;94.66
29907;BME280;16776;50.958;10.994;2023-04-25T04:46:49;97697.31;;;6.18;93.69
29907;BME280;16776;50.958;10.994;2023-04-25T04:49:18;97692.50;;;6.40;92.76
29907;BME280;16776;50.958;10.994;2023-04-25T04:51:44;97684.53;;;6.52;92.10
29907;BME280;16776;50.958;10.994;2023-04-25T04:54:11;97686.00;;;6.60;91.99
29907;BME280;16776;50.958;10.994;2023-04-25T04:56:37;97696.91;;;6.67;91.61
29907;BME280;16776;50.958;10.994;2023-04-25T04:59:04;97696.06;;;6.66;92.57
29907;BME280;16776;50.958;10.994;2023-04-25T05:01:34;97706.09;;;6.77;92.38
29907;BME280;16776;50.958;10.994;2023-04-25T05:04:01;97707.69;;;6.80;92.43
29907;BME280;16776;50.958;10.994;2023-04-25T05:06:30;97719.41;;;6.90;91.95
29907;BME280;16776;50.958;10.994;2023-04-25T05:08:57;97716.69;;;6.94;92.12
29907;BME280;16776;50.958;10.994;2023-04-25T05:11:26;97712.44;;;6.95;91.89
29907;BME280;16776;50.958;10.994;2023-04-25T05:13:53;97724.03;;;7.08;92.28
29907;BME280;16776;50.958;10.994;2023-04-25T05:16:20;97728.94;;;7.16;92.55
29907;BME280;16776;50.958;10.994;2023-04-25T05:18:48;97724.41;;;7.24;92.85
29907;BME280;16776;50.958;10.994;2023-04-25T05:21:14;97732.84;;;7.29;92.26
29907;BME280;16776;50.958;10.994;2023-04-25T05:23:42;97735.97;;;7.38;91.61
29907;BME280;16776;50.958;10.994;2023-04-25T05:26:10;97725.66;;;7.41;91.85
29907;BME280;16776;50.958;10.994;2023-04-25T05:28:40;97731.50;;;7.45;91.77
29907;BME280;16776;50.958;10.994;2023-04-25T05:31:07;97733.06;;;7.51;92.18
29907;BME280;16776;50.958;10.994;2023-04-25T05:33:33;97741.34;;;7.60;91.35
29907;BME280;16776;50.958;10.994;2023-04-25T05:36:00;97736.88;;;7.67;92.09
29907;BME280;16776;50.958;10.994;2023-04-25T05:38:26;97739.16;;;7.76;92.07
29907;BME280;16776;50.958;10.994;2023-04-25T05:40:56;97735.44;;;7.86;92.04
29907;BME280;16776;50.958;10.994;2023-04-25T05:43:22;97738.75;;;7.90;92.36
29907;BME280;16776;50.958;10.994;2023-04-25T05:45:49;97735.06;;;7.98;91.62
29907;BME280;16776;50.958;10.994;2023-04-25T05:48:16;97741.56;;;8.08;91.58
29907;BME280;16776;50.958;10.994;2023-04-25T05:50:42;97735.34;;;8.18;92.27
29907;BME280;16776;50.958;10.994;2023-04-25T05:53:09;97741.03;;;8.27;91.85
29907;BME280;16776;50.958;10.994;2023-04-25T05:55:36;97747.66;;;8.34;91.65
29907;BME280;16776;50.958;10.994;2023-04-25T05:58:05;97744.88;;;8.40;90.59
29907;BME280;16776;50.958;10.994;2023-04-25T06:00:32;97747.44;;;8.40;91.13
29907;BME280;16776;50.958;10.994;2023-04-25T06:02:59;97750.03;;;8.40;91.47
29907;BME280;16776;50.958;10.994;2023-04-25T06:05:26;97748.28;;;8.40;90.79
29907;BME280;16776;50.958;10.994;2023-04-25T06:07:52;97761.91;;;8.42;90.74
29907;BME280;16776;50.958;10.994;2023-04-25T06:10:19;97751.53;;;8.45;91.33
29907;BME280;16776;50.958;10.994;2023-04-25T06:12:49;97752.31;;;8.49;91.14
29907;BME280;16776;50.958;10.994;2023-04-25T06:15:17;97755.75;;;8.48;90.50
29907;BME280;16776;50.958;10.994;2023-04-25T06:17:43;97755.00;;;8.44;90.69
29907;BME280;16776;50.958;10.994;2023-04-25T06:20:11;97755.06;;;8.43;90.59
29907;BME280;16776;50.958;10.994;2023-04-25T06:22:38;97755.16;;;8.40;90.05
29907;BME280;16776;50.958;10.994;2023-04-25T06:25:05;97757.00;;;8.36;90.04
29907;BME280;16776;50.958;10.994;2023-04-25T06:27:32;97760.53;;;8.32;90.34
29907;BME280;16776;50.958;10.994;2023-04-25T06:29:58;97770.06;;;8.29;90.14
29907;BME280;16776;50.958;10.994;2023-04-25T06:32:26;97754.66;;;8.29;90.18
29907;BME280;16776;50.958;10.994;2023-04-25T06:34:55;97758.22;;;8.24;90.00
29907;BME280;16776;50.958;10.994;2023-04-25T06:37:21;97766.84;;;8.22;90.38
29907;BME280;16776;50.958;10.994;2023-04-25T06:39:48;97765.19;;;8.19;90.10
29907;BME280;16776;50.958;10.994;2023-04-25T06:42:14;97773.88;;;8.15;90.63
29907;BME280;16776;50.958;10.994;2023-04-25T06:44:41;97765.38;;;8.13;90.79
29907;BME280;16776;50.958;10.994;2023-04-25T06:47:07;97772.28;;;8.11;90.58
29907;BME280;16776;50.958;10.994;2023-04-25T06:49:35;97781.69;;;8.11;90.34
29907;BME280;16776;50.958;10.994;2023-04-25T06:52:02;97771.53;;;8.06;89.95
29907;BME280;16776;50.958;10.994;2023-04-25T06:54:29;97778.47;;;8.04;89.88
29907;BME280;16776;50.958;10.994;2023-04-25T06:56:56;97765.91;;;7.95;90.01
29907;BME280;16776;50.958;10.994;2023-04-25T06:59:22;97773.44;;;8.00;90.30
29907;BME280;16776;50.958;10.994;2023-04-25T07:01:49;97782.97;;;7.96;90.15
29907;BME280;16776;50.958;10.994;2023-04-25T07:04:16;97785.69;;;7.92;90.10
29907;BME280;16776;50.958;10.994;2023-04-25T07:06:44;97791.53;;;7.95;90.80
29907;BME280;16776;50.958;10.994;2023-04-25T07:09:12;97790.84;;;7.90;90.12
29907;BME280;16776;50.958;10.994;2023-04-25T07:11:39;97796.06;;;7.87;90.32
29907;BME280;16776;50.958;10.994;2023-04-25T07:14:05;97798.63;;;7.87;90.94
29907;BME280;16776;50.958;10.994;2023-04-25T07:16:34;97795.28;;;7.85;91.02
29907;BME280;16776;50.958;10.994;2023-04-25T07:19:01;97797.03;;;7.83;90.74
29907;BME280;16776;50.958;10.994;2023-04-25T07:21:28;97796.22;;;7.81;90.05
29907;BME280;16776;50.958;10.994;2023-04-25T07:23:57;97800.47;;;7.82;90.98
29907;BME280;16776;50.958;10.994;2023-04-25T07:26:24;97798.06;;;7.77;90.04
29907;BME280;16776;50.958;10.994;2023-04-25T07:28:51;97807.50;;;7.75;90.31
29907;BME280;16776;50.958;10.994;2023-04-25T07:31:17;97787.31;;;7.65;90.30
29907;BME280;16776;50.958;10.994;2023-04-25T07:33:44;97803.34;;;7.71;90.82
29907;BME280;16776;50.958;10.994;2023-04-25T07:36:11;97805.13;;;7.69;90.86
29907;BME280;16776;50.958;10.994;2023-04-25T07:38:37;97801.78;;;7.67;90.05
29907;BME280;16776;50.958;10.994;2023-04-25T07:41:06;97814.53;;;7.69;90.67
29907;BME280;16776;50.958;10.994;2023-04-25T07:43:34;97815.41;;;7.68;90.26
29907;BME280;16776;50.958;10.994;2023-04-25T07:46:00;97810.41;;;7.63;90.85
29907;BME280;16776;50.958;10.994;2023-04-25T07:48:27;97813.91;;;7.61;90.22
29907;BME280;16776;50.958;10.994;2023-04-25T07:50:54;97818.25;;;7.59;90.42
29907;BME280;16776;50.958;10.994;2023-04-25T07:53:20;97805.63;;;7.51;91.41
29907;BME280;16776;50.958;10.994;2023-04-25T07:55:47;97822.56;;;7.57;90.46
29907;BME280;16776;50.958;10.994;2023-04-25T07:58:15;97825.03;;;7.60;91.00
29907;BME280;16776;50.958;10.994;2023-04-25T08:00:46;97826.81;;;7.58;90.53
29907;BME280;16776;50.958;10.994;2023-04-25T08:03:13;97833.66;;;7.57;90.95
29907;BME280;16776;50.958;10.994;2023-04-25T08:05:42;97832.66;;;7.61;91.68
29907;BME280;16776;50.958;10.994;2023-04-25T08:08:09;97830.16;;;7.60;91.58
29907;BME280;16776;50.958;10.994;2023-04-25T08:10:38;97837.00;;;7.59;90.38
29907;BME280;16776;50.958;10.994;2023-04-25T08:13:05;97846.31;;;7.62;91.00
29907;BME280;16776;50.958;10.994;2023-04-25T08:15:33;97848.84;;;7.63;91.07
29907;BME280;16776;50.958;10.994;2023-04-25T08:18:00;97854.00;;;7.62;91.21
29907;BME280;16776;50.958;10.994;2023-04-25T08:20:27;97863.47;;;7.60;91.14
29907;BME280;16776;50.958;10.994;2023-04-25T08:22:53;97854.09;;;7.59;91.45
29907;BME280;16776;50.958;10.994;2023-04-25T08:25:20;97866.06;;;7.58;90.51
29907;BME280;16776;50.958;10.994;2023-04-25T08:27:46;97867.88;;;7.55;90.29
29907;BME280;16776;50.958;10.994;2023-04-25T08:30:13;97872.22;;;7.53;91.29
29907;BME280;16776;50.958;10.994;2023-04-25T08:32:44;97884.16;;;7.54;91.75
29907;BME280;16776;50.958;10.994;2023-04-25T08:35:11;97880.84;;;7.49;91.36
29907;BME280;16776;50.958;10.994;2023-04-25T08:37:38;97885.19;;;7.47;91.28
29907;BME280;16776;50.958;10.994;2023-04-25T08:40:05;97886.91;;;7.46;90.84
29907;BME280;16776;50.958;10.994;2023-04-25T08:42:35;97885.19;;;7.47;91.33
29907;BME280;16776;50.958;10.994;2023-04-25T08:45:04;97887.81;;;7.43;91.54
29907;BME280;16776;50.958;10.994;2023-04-25T08:47:33;97891.16;;;7.47;91.27
29907;BME280;16776;50.958;10.994;2023-04-25T08:50:02;97895.34;;;7.50;92.10
29907;BME280;16776;50.958;10.994;2023-04-25T08:52:36;97885.00;;;7.54;92.24
29907;BME280;16776;50.958;10.994;2023-04-25T08:55:04;97897.78;;;7.54;93.02
29907;BME280;16776;50.958;10.994;2023-04-25T08:57:33;97901.09;;;7.58;92.86
29907;BME280;16776;50.958;10.994;2023-04-25T09:00:01;97902.63;;;7.65;92.91
29907;BME280;16776;50.958;10.994;2023-04-25T09:02:29;97909.28;;;7.72;92.64
29907;BME280;16776;50.958;10.994;2023-04-25T09:04:56;97903.16;;;7.77;93.22
29907;BME280;16776;50.958;10.994;2023-04-25T09:07:24;97913.19;;;7.85;93.01
29907;BME280;16776;50.958;10.994;2023-04-25T09:09:51;97917.31;;;7.91;92.50
29907;BME280;16776;50.958;10.994;2023-04-25T09:12:18;97917.09;;;7.98;93.16
29907;BME280;16776;50.958;10.994;2023-04-25T09:15:01;97924.38;;;8.13;92.87
29907;BME280;16776;50.958;10.994;2023-04-25T09:17:29;97927.03;;;8.10;92.37
29907;BME280;16776;50.958;10.994;2023-04-25T09:20:05;97926.75;;;8.21;92.32
29907;BME280;16776;50.958;10.994;2023-04-25T09:22:34;97923.56;;;8.11;91.83
29907;BME280;16776;50.958;10.994;2023-04-25T09:25:03;97942.97;;;8.21;91.60
29907;BME280;16776;50.958;10.994;2023-04-25T09:27:30;97949.84;;;8.19;91.84
29907;BME280;16776;50.958;10.994;2023-04-25T09:29:58;97954.09;;;8.20;91.29
29907;BME280;16776;50.958;10.994;2023-04-25T09:32:25;97958.47;;;8.18;91.46
29907;BME280;16776;50.958;10.994;2023-04-25T09:34:53;97967.88;;;8.18;91.62
29907;BME280;16776;50.958;10.994;2023-04-25T09:37:22;97967.91;;;8.16;91.85
29907;BME280;16776;50.958;10.994;2023-04-25T09:39:52;97963.66;;;8.15;92.10
29907;BME280;16776;50.958;10.994;2023-04-25T09:42:22;97967.09;;;8.14;91.68
29907;BME280;16776;50.958;10.994;2023-04-25T09:44:51;97967.97;;;8.13;92.38
29907;BME280;16776;50.958;10.994;2023-04-25T09:47:18;97967.25;;;8.08;92.25
29907;BME280;16776;50.958;10.994;2023-04-25T09:49:46;97973.19;;;8.10;92.34
29907;BME280;16776;50.958;10.994;2023-04-25T09:52:15;97971.38;;;8.14;92.55
29907;BME280;16776;50.958;10.994;2023-04-25T09:54:42;97965.34;;;8.16;92.91
29907;BME280;16776;50.958;10.994;2023-04-25T09:57:12;97963.34;;;8.26;92.72
29907;BME280;16776;50.958;10.994;2023-04-25T09:59:42;97970.13;;;8.29;92.54
29907;BME280;16776;50.958;10.994;2023-04-25T10:02:10;97981.06;;;8.35;92.03
29907;BME280;16776;50.958;10.994;2023-04-25T10:04:37;97978.47;;;8.37;92.65
29907;BME280;16776;50.958;10.994;2023-04-25T10:07:05;97980.06;;;8.41;92.51
29907;BME280;16776;50.958;10.994;2023-04-25T10:09:33;97985.19;;;8.41;92.27
29907;BME280;16776;50.958;10.994;2023-04-25T10:12:02;97986.03;;;8.41;92.22
29907;BME280;16776;50.958;10.994;2023-04-25T10:14:31;97985.16;;;8.42;92.07
29907;BME280;16776;50.958;10.994;2023-04-25T10:16:58;97993.75;;;8.40;91.58
29907;BME280;16776;50.958;10.994;2023-04-25T10:19:25;97992.06;;;8.39;91.02
29907;BME280;16776;50.958;10.994;2023-04-25T10:21:55;97998.03;;;8.39;92.09
29907;BME280;16776;50.958;10.994;2023-04-25T10:24:23;98003.31;;;8.35;91.19
29907;BME280;16776;50.958;10.994;2023-04-25T10:26:51;98001.75;;;8.29;91.79
29907;BME280;16776;50.958;10.994;2023-04-25T10:29:25;98005.94;;;8.32;91.44
29907;BME280;16776;50.958;10.994;2023-04-25T10:31:53;98007.97;;;8.20;91.18
29907;BME280;16776;50.958;10.994;2023-04-25T10:34:24;98011.50;;;8.16;91.09
29907;BME280;16776;50.958;10.994;2023-04-25T10:36:52;98016.06;;;8.05;90.89
29907;BME280;16776;50.958;10.994;2023-04-25T10:39:23;98018.72;;;8.01;91.23
29907;BME280;16776;50.958;10.994;2023-04-25T10:41:55;98018.97;;;7.92;90.84
29907;BME280;16776;50.958;10.994;2023-04-25T10:44:23;98015.63;;;7.88;90.67
29907;BME280;16776;50.958;10.994;2023-04-25T10:46:55;98013.38;;;7.76;92.28
29907;BME280;16776;50.958;10.994;2023-04-25T10:49:32;98010.75;;;7.79;91.51
29907;BME280;16776;50.958;10.994;2023-04-25T10:52:17;98008.13;;;7.80;92.28
29907;BME280;16776;50.958;10.994;2023-04-25T10:54:47;98013.31;;;7.79;92.76
29907;BME280;16776;50.958;10.994;2023-04-25T10:57:32;98008.81;;;7.87;92.03
29907;BME280;16776;50.958;10.994;2023-04-25T11:00:04;98001.22;;;7.84;91.96
29907;BME280;16776;50.958;10.994;2023-04-25T11:02:37;98002.63;;;7.96;93.01
29907;BME280;16776;50.958;10.994;2023-04-25T11:05:04;97987.44;;;7.88;92.40
29907;BME280;16776;50.958;10.994;2023-04-25T11:07:38;97987.06;;;8.02;92.41
29907;BME280;16776;50.958;10.994;2023-04-25T11:10:06;97999.56;;;8.15;92.75
29907;BME280;16776;50.958;10.994;2023-04-25T11:12:33;97995.84;;;8.25;92.60
29907;BME280;16776;50.958;10.994;2023-04-25T11:15:04;98000.72;;;8.36;91.80
29907;BME280;16776;50.958;10.994;2023-04-25T11:17:32;97999.53;;;8.48;92.03
29907;BME280;16776;50.958;10.994;2023-04-25T11:19:59;98005.09;;;8.62;92.14
29907;BME280;16776;50.958;10.994;2023-04-25T11:22:28;98000.28;;;8.81;92.46
29907;BME280;16776;50.958;10.994;2023-04-25T11:24:55;97999.81;;;8.96;92.13
29907;BME280;16776;50.958;10.994;2023-04-25T11:27:22;97994.94;;;9.15;92.12
29907;BME280;16776;50.958;10.994;2023-04-25T11:29:50;98006.28;;;9.35;92.09
29907;BME280;16776;50.958;10.994;2023-04-25T11:32:17;98006.53;;;9.56;91.57
29907;BME280;16776;50.958;10.994;2023-04-25T11:34:46;98001.63;;;9.74;91.13
29907;BME280;16776;50.958;10.994;2023-04-25T11:37:14;98004.59;;;9.87;90.81
29907;BME280;16776;50.958;10.994;2023-04-25T11:39:44;98008.41;;;10.02;90.30
29907;BME280;16776;50.958;10.994;2023-04-25T11:42:12;98009.13;;;10.05;89.71
29907;BME280;16776;50.958;10.994;2023-04-25T11:44:39;98020.16;;;10.09;89.46
29907;BME280;16776;50.958;10.994;2023-04-25T11:47:07;98020.94;;;10.11;89.53
29907;BME280;16776;50.958;10.994;2023-04-25T11:49:35;98015.69;;;10.14;89.45
29907;BME280;16776;50.958;10.994;2023-04-25T11:52:05;98019.06;;;10.16;89.43
29907;BME280;16776;50.958;10.994;2023-04-25T11:54:35;98014.69;;;10.18;89.03
29907;BME280;16776;50.958;10.994;2023-04-25T11:57:02;98019.06;;;10.16;89.11
29907;BME280;16776;50.958;10.994;2023-04-25T11:59:29;98016.38;;;10.19;89.38
29907;BME280;16776;50.958;10.994;2023-04-25T12:01:55;98018.00;;;10.21;89.05
29907;BME280;16776;50.958;10.994;2023-04-25T12:04:24;98014.41;;;10.25;88.82
29907;BME280;16776;50.958;10.994;2023-04-25T12:06:51;98016.06;;;10.28;89.07
29907;BME280;16776;50.958;10.994;2023-04-25T12:09:28;98006.22;;;10.39;89.52
29907;BME280;16776;50.958;10.994;2023-04-25T12:11:57;98010.31;;;10.45;89.77
29907;BME280;16776;50.958;10.994;2023-04-25T12:14:25;98008.19;;;10.56;89.37
29907;BME280;16776;50.958;10.994;2023-04-25T12:16:55;98007.69;;;10.70;88.93
29907;BME280;16776;50.958;10.994;2023-04-25T12:19:23;98015.09;;;10.79;88.61
29907;BME280;16776;50.958;10.994;2023-04-25T12:21:50;98015.66;;;10.87;87.82
29907;BME280;16776;50.958;10.994;2023-04-25T12:24:18;98024.03;;;10.92;87.13
29907;BME280;16776;50.958;10.994;2023-04-25T12:26:51;98031.81;;;10.90;86.67
29907;BME280;16776;50.958;10.994;2023-04-25T12:29:19;98033.13;;;10.79;86.08
29907;BME280;16776;50.958;10.994;2023-04-25T12:31:46;98039.56;;;10.67;85.65
29907;BME280;16776;50.958;10.994;2023-04-25T12:34:13;98028.88;;;10.54;85.60
29907;BME280;16776;50.958;10.994;2023-04-25T12:36:40;98040.41;;;10.43;85.44
29907;BME280;16776;50.958;10.994;2023-04-25T12:39:06;98044.25;;;10.31;85.09
29907;BME280;16776;50.958;10.994;2023-04-25T12:41:33;98041.25;;;10.18;84.89
29907;BME280;16776;50.958;10.994;2023-04-25T12:44:01;98044.09;;;10.11;84.99
29907;BME280;16776;50.958;10.994;2023-04-25T12:46:28;98037.59;;;10.01;85.09
29907;BME280;16776;50.958;10.994;2023-04-25T12:48:54;98038.59;;;9.97;85.45
29907;BME280;16776;50.958;10.994;2023-04-25T12:51:22;98046.31;;;9.97;85.30
29907;BME280;16776;50.958;10.994;2023-04-25T12:53:52;98042.78;;;9.99;85.36
29907;BME280;16776;50.958;10.994;2023-04-25T12:56:18;98041.72;;;10.05;86.02
29907;BME280;16776;50.958;10.994;2023-04-25T12:58:45;98045.56;;;10.18;85.86
29907;BME280;16776;50.958;10.994;2023-04-25T13:01:14;98039.00;;;10.34;86.45
29907;BME280;16776;50.958;10.994;2023-04-25T13:03:41;98038.56;;;10.46;85.72